sensor_id;sensor_type;location;lat;lon;timestamp;P1;durP1;ratioP1;P2;durP2;ratioP2
33148;SDS011;19506;51.040;3.856;2023-06-22T09:51:14;27.65;;;13.25;;
33148;SDS011;19506;51.040;3.856;2023-06-22T09:53:40;28.83;;;13.55;;
33148;SDS011;19506;51.040;3.856;2023-06-22T09:56:06;24.77;;;13.80;;
33148;SDS011;19506;51.040;3.856;2023-06-22T09:58:31;26.65;;;14.75;;
33148;SDS011;19506;51.040;3.856;2023-06-22T10:00:57;38.95;;;16.48;;
33148;SDS011;19506;51.040;3.856;2023-06-22T10:03:23;24.23;;;15.43;;
33148;SDS011;19506;51.040;3.856;2023-06-22T10:05:49;31.92;;;16.50;;
33148;SDS011;19506;51.040;3.856;2023-06-22T10:08:14;30.60;;;16.80;;
33148;SDS011;19506;51.040;3.856;2023-06-22T10:10:40;32.08;;;16.40;;
33148;SDS011;19506;51.040;3.856;2023-06-22T10:13:09;31.23;;;15.85;;
33148;SDS011;19506;51.040;3.856;2023-06-22T10:15:36;28.35;;;16.27;;
33148;SDS011;19506;51.040;3.856;2023-06-22T10:18:02;25.48;;;15.00;;
33148;SDS011;19506;51.040;3.856;2023-06-22T10:20:28;29.98;;;14.63;;
33148;SDS011;19506;51.040;3.856;2023-06-22T10:22:54;27.52;;;15.07;;
33148;SDS011;19506;51.040;3.856;2023-06-22T10:25:19;37.10;;;11.88;;
33148;SDS011;19506;51.040;3.856;2023-06-22T10:27:46;34.55;;;12.35;;
33148;SDS011;19506;51.040;3.856;2023-06-22T10:30:12;45.13;;;12.52;;
33148;SDS011;19506;51.040;3.856;2023-06-22T10:32:39;39.80;;;11.23;;
33148;SDS011;19506;51.040;3.856;2023-06-22T10:35:05;30.92;;;12.20;;
33148;SDS011;19506;51.040;3.856;2023-06-22T10:37:31;37.70;;;12.23;;
33148;SDS011;19506;51.040;3.856;2023-06-22T10:39:57;37.20;;;12.68;;
33148;SDS011;19506;51.040;3.856;2023-06-22T10:42:23;37.05;;;11.98;;
33148;SDS011;19506;51.040;3.856;2023-06-22T10:44:49;39.15;;;12.43;;
33148;SDS011;19506;51.040;3.856;2023-06-22T10:47:14;45.30;;;11.23;;
33148;SDS011;19506;51.040;3.856;2023-06-22T10:49:40;40.97;;;12.93;;
33148;SDS011;19506;51.040;3.856;2023-06-22T10:52:07;36.28;;;12.10;;
33148;SDS011;19506;51.040;3.856;2023-06-22T10:54:33;38.17;;;13.18;;
33148;SDS011;19506;51.040;3.856;2023-06-22T10:57:02;34.90;;;12.70;;
33148;SDS011;19506;51.040;3.856;2023-06-22T10:59:28;33.75;;;11.40;;
33148;SDS011;19506;51.040;3.856;2023-06-22T11:01:57;27.13;;;10.63;;
33148;SDS011;19506;51.040;3.856;2023-06-22T11:04:24;24.02;;;10.40;;
33148;SDS011;19506;51.040;3.856;2023-06-22T11:06:50;30.13;;;10.68;;
33148;SDS011;19506;51.040;3.856;2023-06-22T11:09:16;31.40;;;11.38;;
33148;SDS011;19506;51.040;3.856;2023-06-22T11:11:45;29.23;;;10.93;;
33148;SDS011;19506;51.040;3.856;2023-06-22T11:14:11;24.15;;;11.10;;
33148;SDS011;19506;51.040;3.856;2023-06-22T11:16:37;26.23;;;10.60;;
33148;SDS011;19506;51.040;3.856;2023-06-22T11:19:04;33.58;;;10.15;;
33148;SDS011;19506;51.040;3.856;2023-06-22T11:21:30;23.90;;;9.35;;
33148;SDS011;19506;51.040;3.856;2023-06-22T11:23:57;20.02;;;8.88;;
33148;SDS011;19506;51.040;3.856;2023-06-22T11:26:24;26.40;;;8.75;;
33148;SDS011;19506;51.040;3.856;2023-06-22T11:28:52;24.90;;;9.38;;
33148;SDS011;19506;51.040;3.856;2023-06-22T11:31:18;17.13;;;8.23;;
33148;SDS011;19506;51.040;3.856;2023-06-22T11:33:43;28.98;;;8.85;;
33148;SDS011;19506;51.040;3.856;2023-06-22T11:36:11;25.80;;;8.18;;
33148;SDS011;19506;51.040;3.856;2023-06-22T11:38:37;18.02;;;8.60;;
33148;SDS011;19506;51.040;3.856;2023-06-22T11:41:05;21.67;;;9.13;;
33148;SDS011;19506;51.040;3.856;2023-06-22T11:43:31;29.55;;;7.40;;
33148;SDS011;19506;51.040;3.856;2023-06-22T11:45:57;29.00;;;8.40;;
33148;SDS011;19506;51.040;3.856;2023-06-22T11:48:23;27.75;;;7.25;;
33148;SDS011;19506;51.040;3.856;2023-06-22T11:50:49;19.45;;;7.32;;
33148;SDS011;19506;51.040;3.856;2023-06-22T11:53:15;18.80;;;7.90;;
33148;SDS011;19506;51.040;3.856;2023-06-22T11:55:42;22.73;;;7.32;;
33148;SDS011;19506;51.040;3.856;2023-06-22T11:58:08;17.33;;;7.57;;
33148;SDS011;19506;51.040;3.856;2023-06-22T12:00:37;17.92;;;7.97;;
33148;SDS011;19506;51.040;3.856;2023-06-22T12:03:03;16.13;;;6.72;;
33148;SDS011;19506;51.040;3.856;2023-06-22T12:05:28;20.52;;;7.70;;
33148;SDS011;19506;51.040;3.856;2023-06-22T12:07:54;17.42;;;7.53;;
33148;SDS011;19506;51.040;3.856;2023-06-22T12:10:20;14.93;;;5.85;;
33148;SDS011;19506;51.040;3.856;2023-06-22T12:12:47;17.05;;;6.38;;
33148;SDS011;19506;51.040;3.856;2023-06-22T12:15:12;17.65;;;7.00;;
33148;SDS011;19506;51.040;3.856;2023-06-22T12:17:38;23.55;;;7.03;;
33148;SDS011;19506;51.040;3.856;2023-06-22T12:20:05;40.78;;;7.57;;
33148;SDS011;19506;51.040;3.856;2023-06-22T12:22:35;12.00;;;6.13;;
33148;SDS011;19506;51.040;3.856;2023-06-22T12:25:02;12.05;;;6.47;;
33148;SDS011;19506;51.040;3.856;2023-06-22T12:27:29;16.13;;;7.20;;
33148;SDS011;19506;51.040;3.856;2023-06-22T12:29:55;13.20;;;6.10;;
33148;SDS011;19506;51.040;3.856;2023-06-22T12:32:21;15.10;;;7.03;;
33148;SDS011;19506;51.040;3.856;2023-06-22T12:34:47;14.40;;;6.75;;
33148;SDS011;19506;51.040;3.856;2023-06-22T12:37:12;11.38;;;6.80;;
33148;SDS011;19506;51.040;3.856;2023-06-22T12:39:40;9.80;;;6.35;;
33148;SDS011;19506;51.040;3.856;2023-06-22T12:42:06;10.18;;;6.75;;
33148;SDS011;19506;51.040;3.856;2023-06-22T12:44:34;11.75;;;7.38;;
33148;SDS011;19506;51.040;3.856;2023-06-22T12:47:00;13.80;;;7.07;;
33148;SDS011;19506;51.040;3.856;2023-06-22T12:49:26;18.45;;;7.50;;
33148;SDS011;19506;51.040;3.856;2023-06-22T12:51:51;8.15;;;6.57;;
33148;SDS011;19506;51.040;3.856;2023-06-22T12:54:17;10.80;;;6.93;;
33148;SDS011;19506;51.040;3.856;2023-06-22T12:56:42;17.30;;;6.50;;
33148;SDS011;19506;51.040;3.856;2023-06-22T12:59:12;10.23;;;6.13;;
33148;SDS011;19506;51.040;3.856;2023-06-22T13:01:37;10.05;;;7.22;;
33148;SDS011;19506;51.040;3.856;2023-06-22T13:04:03;15.52;;;7.75;;
33148;SDS011;19506;51.040;3.856;2023-06-22T13:06:29;14.30;;;7.75;;
33148;SDS011;19506;51.040;3.856;2023-06-22T13:08:55;10.02;;;7.03;;
33148;SDS011;19506;51.040;3.856;2023-06-22T13:11:20;9.43;;;6.75;;
33148;SDS011;19506;51.040;3.856;2023-06-22T13:13:46;14.15;;;7.65;;
33148;SDS011;19506;51.040;3.856;2023-06-22T13:16:12;11.93;;;6.72;;
33148;SDS011;19506;51.040;3.856;2023-06-22T13:18:38;12.30;;;7.88;;
33148;SDS011;19506;51.040;3.856;2023-06-22T13:21:04;9.82;;;6.97;;
33148;SDS011;19506;51.040;3.856;2023-06-22T13:23:30;15.27;;;8.15;;
33148;SDS011;19506;51.040;3.856;2023-06-22T13:25:57;10.48;;;7.53;;
33148;SDS011;19506;51.040;3.856;2023-06-22T13:28:23;13.27;;;7.72;;
33148;SDS011;19506;51.040;3.856;2023-06-22T13:30:48;12.82;;;8.23;;
33148;SDS011;19506;51.040;3.856;2023-06-22T13:33:14;11.88;;;7.95;;
33148;SDS011;19506;51.040;3.856;2023-06-22T13:35:40;13.82;;;7.90;;
33148;SDS011;19506;51.040;3.856;2023-06-22T13:38:09;11.60;;;7.70;;
33148;SDS011;19506;51.040;3.856;2023-06-22T13:40:35;11.77;;;8.00;;
33148;SDS011;19506;51.040;3.856;2023-06-22T13:43:03;13.02;;;8.10;;
33148;SDS011;19506;51.040;3.856;2023-06-22T13:45:29;10.30;;;7.63;;
33148;SDS011;19506;51.040;3.856;2023-06-22T13:47:55;9.40;;;7.07;;
33148;SDS011;19506;51.040;3.856;2023-06-22T13:50:20;12.13;;;8.63;;
33148;SDS011;19506;51.040;3.856;2023-06-22T13:52:46;14.45;;;8.95;;
33148;SDS011;19506;51.040;3.856;2023-06-22T13:55:12;13.18;;;8.50;;
33148;SDS011;19506;51.040;3.856;2023-06-22T13:57:39;12.77;;;8.30;;
33148;SDS011;19506;51.040;3.856;2023-06-22T14:00:05;11.18;;;8.82;;
33148;SDS011;19506;51.040;3.856;2023-06-22T14:02:31;12.93;;;8.63;;
33148;SDS011;19506;51.040;3.856;2023-06-22T14:04:57;13.00;;;8.52;;
33148;SDS011;19506;51.040;3.856;2023-06-22T14:07:23;15.43;;;9.68;;
33148;SDS011;19506;51.040;3.856;2023-06-22T14:09:49;15.55;;;10.23;;
33148;SDS011;19506;51.040;3.856;2023-06-22T14:12:15;21.58;;;10.50;;
33148;SDS011;19506;51.040;3.856;2023-06-22T14:14:42;19.35;;;8.90;;
33148;SDS011;19506;51.040;3.856;2023-06-22T14:17:08;15.13;;;9.57;;
33148;SDS011;19506;51.040;3.856;2023-06-22T14:19:35;14.23;;;10.10;;
33148;SDS011;19506;51.040;3.856;2023-06-22T14:22:01;15.05;;;11.07;;
33148;SDS011;19506;51.040;3.856;2023-06-22T14:24:26;15.52;;;10.05;;
33148;SDS011;19506;51.040;3.856;2023-06-22T14:26:53;16.52;;;10.43;;
33148;SDS011;19506;51.040;3.856;2023-06-22T14:29:19;16.00;;;9.68;;
33148;SDS011;19506;51.040;3.856;2023-06-22T14:31:45;19.40;;;8.90;;
33148;SDS011;19506;51.040;3.856;2023-06-22T14:34:12;18.33;;;10.98;;
33148;SDS011;19506;51.040;3.856;2023-06-22T14:36:37;24.38;;;11.02;;
33148;SDS011;19506;51.040;3.856;2023-06-22T14:39:03;17.52;;;11.32;;
33148;SDS011;19506;51.040;3.856;2023-06-22T14:41:29;15.68;;;11.38;;
33148;SDS011;19506;51.040;3.856;2023-06-22T14:43:55;16.58;;;10.40;;
33148;SDS011;19506;51.040;3.856;2023-06-22T14:46:21;15.70;;;10.80;;
33148;SDS011;19506;51.040;3.856;2023-06-22T14:48:47;20.20;;;12.52;;
33148;SDS011;19506;51.040;3.856;2023-06-22T14:51:13;17.33;;;12.05;;
33148;SDS011;19506;51.040;3.856;2023-06-22T14:53:39;13.80;;;10.82;;
33148;SDS011;19506;51.040;3.856;2023-06-22T14:56:05;18.60;;;11.23;;
33148;SDS011;19506;51.040;3.856;2023-06-22T14:58:31;17.08;;;11.23;;
33148;SDS011;19506;51.040;3.856;2023-06-22T15:01:01;15.95;;;11.35;;
33148;SDS011;19506;51.040;3.856;2023-06-22T15:03:27;18.35;;;11.88;;
33148;SDS011;19506;51.040;3.856;2023-06-22T15:05:55;18.48;;;12.10;;
33148;SDS011;19506;51.040;3.856;2023-06-22T15:08:21;19.00;;;10.93;;
33148;SDS011;19506;51.040;3.856;2023-06-22T15:10:47;18.58;;;12.13;;
33148;SDS011;19506;51.040;3.856;2023-06-22T15:13:13;15.48;;;11.98;;
33148;SDS011;19506;51.040;3.856;2023-06-22T15:15:38;18.73;;;12.10;;
33148;SDS011;19506;51.040;3.856;2023-06-22T15:18:04;17.05;;;12.02;;
33148;SDS011;19506;51.040;3.856;2023-06-22T15:20:30;17.58;;;12.23;;
33148;SDS011;19506;51.040;3.856;2023-06-22T15:22:59;22.80;;;12.68;;
33148;SDS011;19506;51.040;3.856;2023-06-22T15:25:25;27.20;;;15.82;;
33148;SDS011;19506;51.040;3.856;2023-06-22T15:27:50;23.20;;;14.05;;
33148;SDS011;19506;51.040;3.856;2023-06-22T15:30:16;19.73;;;12.90;;
33148;SDS011;19506;51.040;3.856;2023-06-22T15:32:42;23.20;;;14.90;;
33148;SDS011;19506;51.040;3.856;2023-06-22T15:35:12;25.25;;;15.80;;
33148;SDS011;19506;51.040;3.856;2023-06-22T15:37:39;32.72;;;16.48;;
33148;SDS011;19506;51.040;3.856;2023-06-22T15:40:05;27.02;;;16.75;;
33148;SDS011;19506;51.040;3.856;2023-06-22T15:42:31;32.38;;;19.02;;
33148;SDS011;19506;51.040;3.856;2023-06-22T15:44:57;29.17;;;18.15;;
33148;SDS011;19506;51.040;3.856;2023-06-22T15:47:23;27.85;;;17.50;;
33148;SDS011;19506;51.040;3.856;2023-06-22T15:49:49;30.85;;;19.00;;
33148;SDS011;19506;51.040;3.856;2023-06-22T15:52:15;37.58;;;20.90;;
33148;SDS011;19506;51.040;3.856;2023-06-22T15:54:43;35.53;;;18.83;;
33148;SDS011;19506;51.040;3.856;2023-06-22T15:57:10;32.25;;;19.65;;
33148;SDS011;19506;51.040;3.856;2023-06-22T15:59:42;37.25;;;22.40;;
33148;SDS011;19506;51.040;3.856;2023-06-22T16:02:08;37.05;;;22.67;;
33148;SDS011;19506;51.040;3.856;2023-06-22T16:04:34;33.05;;;21.60;;
33148;SDS011;19506;51.040;3.856;2023-06-22T16:07:01;35.60;;;22.83;;
33148;SDS011;19506;51.040;3.856;2023-06-22T16:09:27;35.72;;;21.67;;
33148;SDS011;19506;51.040;3.856;2023-06-22T16:11:54;32.63;;;22.10;;
33148;SDS011;19506;51.040;3.856;2023-06-22T16:14:19;35.35;;;23.85;;
33148;SDS011;19506;51.040;3.856;2023-06-22T16:16:46;35.55;;;21.65;;
33148;SDS011;19506;51.040;3.856;2023-06-22T16:19:11;35.58;;;24.90;;
33148;SDS011;19506;51.040;3.856;2023-06-22T16:21:37;37.53;;;24.08;;
33148;SDS011;19506;51.040;3.856;2023-06-22T16:24:03;38.90;;;25.38;;
33148;SDS011;19506;51.040;3.856;2023-06-22T16:26:37;38.30;;;26.80;;
33148;SDS011;19506;51.040;3.856;2023-06-22T16:29:07;40.33;;;26.48;;
33148;SDS011;19506;51.040;3.856;2023-06-22T16:31:34;38.45;;;27.17;;
33148;SDS011;19506;51.040;3.856;2023-06-22T16:34:01;42.83;;;26.65;;
33148;SDS011;19506;51.040;3.856;2023-06-22T16:36:28;42.63;;;26.90;;
33148;SDS011;19506;51.040;3.856;2023-06-22T16:38:53;44.17;;;27.00;;
33148;SDS011;19506;51.040;3.856;2023-06-22T16:41:19;40.63;;;29.00;;
33148;SDS011;19506;51.040;3.856;2023-06-22T16:43:46;39.15;;;30.52;;
33148;SDS011;19506;51.040;3.856;2023-06-22T16:46:11;41.97;;;30.80;;
33148;SDS011;19506;51.040;3.856;2023-06-22T16:48:37;38.75;;;29.88;;
33148;SDS011;19506;51.040;3.856;2023-06-22T16:51:03;40.40;;;30.08;;
33148;SDS011;19506;51.040;3.856;2023-06-22T16:53:29;46.42;;;31.77;;
33148;SDS011;19506;51.040;3.856;2023-06-22T16:55:55;45.33;;;31.33;;
33148;SDS011;19506;51.040;3.856;2023-06-22T16:58:23;43.08;;;31.77;;
33148;SDS011;19506;51.040;3.856;2023-06-22T17:00:53;39.75;;;29.92;;
33148;SDS011;19506;51.040;3.856;2023-06-22T17:03:26;43.85;;;32.10;;
33148;SDS011;19506;51.040;3.856;2023-06-22T17:05:57;46.88;;;33.22;;
33148;SDS011;19506;51.040;3.856;2023-06-22T17:08:28;46.25;;;31.55;;
33148;SDS011;19506;51.040;3.856;2023-06-22T17:10:58;39.47;;;31.13;;
33148;SDS011;19506;51.040;3.856;2023-06-22T17:13:23;47.53;;;34.92;;
33148;SDS011;19506;51.040;3.856;2023-06-22T17:15:49;47.10;;;31.27;;
33148;SDS011;19506;51.040;3.856;2023-06-22T17:18:20;50.00;;;33.75;;
33148;SDS011;19506;51.040;3.856;2023-06-22T17:20:49;45.30;;;32.47;;
33148;SDS011;19506;51.040;3.856;2023-06-22T17:23:14;43.65;;;32.65;;
33148;SDS011;19506;51.040;3.856;2023-06-22T17:25:40;44.70;;;32.40;;
33148;SDS011;19506;51.040;3.856;2023-06-22T17:28:07;46.53;;;30.92;;
33148;SDS011;19506;51.040;3.856;2023-06-22T17:30:33;44.90;;;33.17;;
33148;SDS011;19506;51.040;3.856;2023-06-22T17:32:59;41.20;;;31.70;;
33148;SDS011;19506;51.040;3.856;2023-06-22T17:35:25;42.28;;;33.00;;
33148;SDS011;19506;51.040;3.856;2023-06-22T17:40:19;44.92;;;33.30;;
33148;SDS011;19506;51.040;3.856;2023-06-22T17:42:46;44.17;;;31.33;;
33148;SDS011;19506;51.040;3.856;2023-06-22T17:45:16;46.78;;;31.98;;
33148;SDS011;19506;51.040;3.856;2023-06-22T17:47:49;41.88;;;32.40;;
33148;SDS011;19506;51.040;3.856;2023-06-22T17:50:16;45.60;;;31.08;;
33148;SDS011;19506;51.040;3.856;2023-06-22T17:52:51;45.13;;;32.75;;
33148;SDS011;19506;51.040;3.856;2023-06-22T17:55:21;46.03;;;32.10;;
33148;SDS011;19506;51.040;3.856;2023-06-22T17:57:48;45.58;;;31.92;;
33148;SDS011;19506;51.040;3.856;2023-06-22T18:00:21;44.47;;;31.63;;
33148;SDS011;19506;51.040;3.856;2023-06-22T18:02:47;46.75;;;32.47;;
33148;SDS011;19506;51.040;3.856;2023-06-22T18:05:15;46.03;;;30.67;;
33148;SDS011;19506;51.040;3.856;2023-06-22T18:07:41;52.00;;;32.38;;
33148;SDS011;19506;51.040;3.856;2023-06-22T18:10:07;56.80;;;33.15;;
33148;SDS011;19506;51.040;3.856;2023-06-22T18:12:34;52.55;;;33.85;;
33148;SDS011;19506;51.040;3.856;2023-06-22T18:15:02;44.53;;;31.27;;
33148;SDS011;19506;51.040;3.856;2023-06-22T18:17:28;49.70;;;31.48;;
33148;SDS011;19506;51.040;3.856;2023-06-22T18:19:54;47.95;;;31.98;;
33148;SDS011;19506;51.040;3.856;2023-06-22T18:22:21;39.10;;;28.63;;
33148;SDS011;19506;51.040;3.856;2023-06-22T18:24:48;47.47;;;28.63;;
33148;SDS011;19506;51.040;3.856;2023-06-22T18:27:15;42.50;;;27.75;;
33148;SDS011;19506;51.040;3.856;2023-06-22T18:29:41;52.10;;;29.35;;
33148;SDS011;19506;51.040;3.856;2023-06-22T18:32:08;45.85;;;27.00;;
33148;SDS011;19506;51.040;3.856;2023-06-22T18:34:34;46.83;;;28.98;;
33148;SDS011;19506;51.040;3.856;2023-06-22T18:37:00;50.30;;;26.95;;
33148;SDS011;19506;51.040;3.856;2023-06-22T18:39:30;57.05;;;27.98;;
33148;SDS011;19506;51.040;3.856;2023-06-22T18:41:58;48.92;;;26.92;;
33148;SDS011;19506;51.040;3.856;2023-06-22T18:44:28;38.75;;;26.23;;
33148;SDS011;19506;51.040;3.856;2023-06-22T18:46:58;42.22;;;26.95;;
33148;SDS011;19506;51.040;3.856;2023-06-22T18:49:46;52.20;;;26.08;;
33148;SDS011;19506;51.040;3.856;2023-06-22T18:52:17;54.13;;;25.23;;
33148;SDS011;19506;51.040;3.856;2023-06-22T18:54:49;40.90;;;23.90;;
33148;SDS011;19506;51.040;3.856;2023-06-22T18:57:22;49.58;;;24.35;;
33148;SDS011;19506;51.040;3.856;2023-06-22T18:59:50;45.85;;;24.92;;
33148;SDS011;19506;51.040;3.856;2023-06-22T19:15:41;50.53;;;21.50;;
33148;SDS011;19506;51.040;3.856;2023-06-22T19:18:15;35.78;;;20.10;;
33148;SDS011;19506;51.040;3.856;2023-06-22T19:20:42;60.88;;;20.27;;
33148;SDS011;19506;51.040;3.856;2023-06-22T19:25:57;37.58;;;19.50;;
33148;SDS011;19506;51.040;3.856;2023-06-22T19:28:25;37.20;;;18.58;;
33148;SDS011;19506;51.040;3.856;2023-06-22T19:30:52;40.17;;;18.48;;
33148;SDS011;19506;51.040;3.856;2023-06-22T19:33:23;39.42;;;18.05;;
33148;SDS011;19506;51.040;3.856;2023-06-22T19:35:53;40.50;;;18.83;;
33148;SDS011;19506;51.040;3.856;2023-06-22T19:38:24;31.55;;;18.67;;
33148;SDS011;19506;51.040;3.856;2023-06-22T19:40:51;40.25;;;18.52;;
33148;SDS011;19506;51.040;3.856;2023-06-22T19:43:17;40.22;;;19.90;;
33148;SDS011;19506;51.040;3.856;2023-06-22T19:45:44;46.33;;;21.30;;
33148;SDS011;19506;51.040;3.856;2023-06-22T19:48:10;38.47;;;18.60;;
33148;SDS011;19506;51.040;3.856;2023-06-22T19:50:37;29.20;;;18.85;;
33148;SDS011;19506;51.040;3.856;2023-06-22T19:53:11;31.70;;;18.50;;
33148;SDS011;19506;51.040;3.856;2023-06-22T19:55:42;35.83;;;19.35;;
33148;SDS011;19506;51.040;3.856;2023-06-22T19:58:09;29.27;;;17.85;;
33148;SDS011;19506;51.040;3.856;2023-06-22T20:00:39;37.13;;;19.38;;
33148;SDS011;19506;51.040;3.856;2023-06-22T20:03:14;33.03;;;18.98;;
33148;SDS011;19506;51.040;3.856;2023-06-22T20:05:41;29.92;;;18.80;;
33148;SDS011;19506;51.040;3.856;2023-06-22T20:08:12;37.03;;;19.33;;
33148;SDS011;19506;51.040;3.856;2023-06-22T20:10:39;30.13;;;18.25;;
33148;SDS011;19506;51.040;3.856;2023-06-22T20:13:12;28.05;;;17.13;;
33148;SDS011;19506;51.040;3.856;2023-06-22T20:15:39;45.22;;;19.00;;
33148;SDS011;19506;51.040;3.856;2023-06-22T20:18:06;32.30;;;16.52;;
33148;SDS011;19506;51.040;3.856;2023-06-22T20:20:33;32.80;;;16.52;;
33148;SDS011;19506;51.040;3.856;2023-06-22T20:23:04;27.52;;;16.33;;
33148;SDS011;19506;51.040;3.856;2023-06-22T20:25:32;29.90;;;16.17;;
33148;SDS011;19506;51.040;3.856;2023-06-22T20:28:15;33.58;;;15.95;;
33148;SDS011;19506;51.040;3.856;2023-06-22T20:30:42;28.00;;;16.13;;
33148;SDS011;19506;51.040;3.856;2023-06-22T20:33:27;25.50;;;15.50;;
33148;SDS011;19506;51.040;3.856;2023-06-22T20:35:53;24.65;;;14.13;;
33148;SDS011;19506;51.040;3.856;2023-06-22T20:38:19;25.65;;;14.05;;
33148;SDS011;19506;51.040;3.856;2023-06-22T20:40:48;30.73;;;14.55;;
33148;SDS011;19506;51.040;3.856;2023-06-22T20:43:14;24.30;;;13.38;;
33148;SDS011;19506;51.040;3.856;2023-06-22T20:45:40;20.13;;;13.60;;
33148;SDS011;19506;51.040;3.856;2023-06-22T20:48:06;29.70;;;14.00;;
33148;SDS011;19506;51.040;3.856;2023-06-22T20:50:33;27.80;;;13.30;;
33148;SDS011;19506;51.040;3.856;2023-06-22T20:53:00;39.78;;;12.38;;
33148;SDS011;19506;51.040;3.856;2023-06-22T20:55:27;24.98;;;13.00;;
33148;SDS011;19506;51.040;3.856;2023-06-22T20:57:54;33.53;;;11.30;;
33148;SDS011;19506;51.040;3.856;2023-06-22T21:00:22;35.75;;;13.43;;
33148;SDS011;19506;51.040;3.856;2023-06-22T21:02:49;26.33;;;12.77;;
33148;SDS011;19506;51.040;3.856;2023-06-22T21:05:21;21.50;;;12.02;;
33148;SDS011;19506;51.040;3.856;2023-06-22T21:07:47;25.98;;;11.23;;
33148;SDS011;19506;51.040;3.856;2023-06-22T21:10:14;30.80;;;11.45;;
33148;SDS011;19506;51.040;3.856;2023-06-22T21:12:40;23.27;;;12.63;;
33148;SDS011;19506;51.040;3.856;2023-06-22T21:15:06;23.13;;;12.23;;
33148;SDS011;19506;51.040;3.856;2023-06-22T21:17:32;19.13;;;12.13;;
33148;SDS011;19506;51.040;3.856;2023-06-22T21:19:58;25.15;;;13.27;;
33148;SDS011;19506;51.040;3.856;2023-06-22T21:22:25;31.40;;;12.30;;
33148;SDS011;19506;51.040;3.856;2023-06-22T21:25:07;24.00;;;10.80;;
33148;SDS011;19506;51.040;3.856;2023-06-22T21:27:35;19.42;;;11.25;;
33148;SDS011;19506;51.040;3.856;2023-06-22T21:30:03;22.85;;;11.05;;
33148;SDS011;19506;51.040;3.856;2023-06-22T21:32:29;21.17;;;10.82;;
33148;SDS011;19506;51.040;3.856;2023-06-22T21:34:55;25.45;;;11.68;;
33148;SDS011;19506;51.040;3.856;2023-06-22T21:37:21;19.23;;;10.77;;
33148;SDS011;19506;51.040;3.856;2023-06-22T21:39:47;29.48;;;12.15;;
33148;SDS011;19506;51.040;3.856;2023-06-22T21:42:14;26.00;;;9.98;;
33148;SDS011;19506;51.040;3.856;2023-06-22T21:44:40;21.63;;;11.60;;
33148;SDS011;19506;51.040;3.856;2023-06-22T21:47:06;32.35;;;10.68;;
33148;SDS011;19506;51.040;3.856;2023-06-22T21:49:33;19.73;;;9.90;;
33148;SDS011;19506;51.040;3.856;2023-06-22T21:51:58;24.02;;;9.57;;
33148;SDS011;19506;51.040;3.856;2023-06-22T21:54:24;18.38;;;8.23;;
